Midnight Wolf — HO7969 — position and weather

sailwx.info

Track history (hours):
 
Tides and Currents Weather Stations Pressure Air Temp Water Temp Dewpoint Dewpoint Depression Visibility Wind Speed Wind Dir Waves Ship Positions

Midnight Wolf

Last reported at 2015-Aug-02 09:17 UTC. Time now 2015-Aug-02 22:26 UTC.
Position N 18°17' W 064°53'.

Length 51 m; draft 4 m.

Type: Cargo ship. MMSI: 351880000.

Date/timePositionNaut miles runAvg speedWind from/ knotsBaromVisibWave heightAir tempDewpointWater temp
2015-Aug-02 09:17N 18°17' W 064°53'8 9.5
2015-Aug-02 08:24N 18°16' W 064°45'69 9.8
2015-Aug-02 01:22N 18°09' W 063°33'8 9.6
2015-Aug-02 00:33N 18°08' W 063°25'10 9.9
2015-Aug-01 23:33N 18°07' W 063°14'9 8.9
2015-Aug-01 22:33N 18°05' W 063°05'0 0.0
2015-Aug-01 21:32N 18°05' W 063°05'0 0.0
2015-Aug-01 20:32N 18°05' W 063°05'0 0.0
2015-Aug-01 19:33N 18°05' W 063°05'3 2.8
2015-Aug-01 18:32N 18°05' W 063°08'8 8.7
2015-Aug-01 17:33N 18°06' W 063°17'9 8.7
2015-Aug-01 16:33N 18°06' W 063°26'77 8.3
2015-Aug-01 07:17N 18°13' W 064°47'6 8.2
2015-Aug-01 06:34N 18°13' W 064°53'14 0.5
2015-Jul-31 03:04N 18°27' W 064°56'5 9.7
2015-Jul-31 02:33N 18°25' W 064°51'10 9.5
2015-Jul-31 01:33N 18°22' W 064°41'5 0.3
2015-Jul-30 06:30N 18°25' W 064°36'62 9.9
2015-Jul-30 00:13N 18°10' W 063°33'710.0
2015-Jul-29 23:33N 18°08' W 063°26'10 9.8
2015-Jul-29 22:33N 18°07' W 063°16'10 9.7
2015-Jul-29 21:33N 18°05' W 063°06'1 0.6
2015-Jul-29 20:31N 18°05' W 063°05'0 0.0
2015-Jul-29 19:32N 18°05' W 063°05'0 0.0
2015-Jul-29 18:33N 18°05' W 063°05'0 0.0
2015-Jul-29 17:33N 18°05' W 063°05'0 0.0
2015-Jul-29 16:31N 18°05' W 063°05'0 0.0
2015-Jul-29 15:33N 18°05' W 063°05'0 0.0
2015-Jul-29 14:32N 18°05' W 063°05'0 0.0
2015-Jul-29 13:33N 18°05' W 063°05'0 0.0
2015-Jul-29 12:33N 18°05' W 063°05'0 0.0
2015-Jul-29 11:31N 18°05' W 063°05'0 0.5
2015-Jul-29 10:33N 18°05' W 063°06'0 0.0
2015-Jul-29 09:33N 18°05' W 063°06'0 0.0
2015-Jul-29 08:33N 18°05' W 063°06'0 0.0
2015-Jul-29 07:31N 18°05' W 063°06'0 0.0
2015-Jul-29 06:33N 18°05' W 063°05'0 0.0
2015-Jul-29 05:33N 18°05' W 063°05'0 0.0
2015-Jul-29 04:33N 18°05' W 063°06'0 0.0
2015-Jul-29 03:32N 18°05' W 063°05'0 0.0
2015-Jul-29 02:32N 18°05' W 063°06'0 0.0
2015-Jul-29 01:33N 18°05' W 063°05'0 0.0
2015-Jul-29 00:33N 18°05' W 063°06'0 0.0
2015-Jul-28 23:33N 18°05' W 063°06'0 0.0
2015-Jul-28 22:33N 18°05' W 063°06'0 0.0
2015-Jul-28 21:31N 18°05' W 063°06'0 0.0
2015-Jul-28 20:33N 18°05' W 063°06'0 0.0
2015-Jul-28 19:32N 18°05' W 063°06'0 0.0
2015-Jul-28 18:32N 18°05' W 063°06'0 0.0
2015-Jul-28 17:32N 18°05' W 063°05'0 0.0
2015-Jul-28 16:33N 18°05' W 063°06'0 0.0
2015-Jul-28 15:33N 18°05' W 063°05'0 0.0
2015-Jul-28 14:33N 18°05' W 063°05'0 0.0
2015-Jul-28 13:33N 18°05' W 063°06'0 0.0
2015-Jul-28 12:33N 18°05' W 063°06'0 0.0
2015-Jul-28 11:33N 18°05' W 063°06'0 0.0
2015-Jul-28 10:32N 18°05' W 063°05'0 0.0
2015-Jul-28 09:33N 18°05' W 063°06'0 0.0
2015-Jul-28 08:32N 18°05' W 063°06'0 0.0
2015-Jul-28 07:31N 18°05' W 063°05'0 0.0
2015-Jul-28 06:32N 18°05' W 063°06'5 5.2
2015-Jul-28 05:32N 18°01' W 063°10'10 9.6
2015-Jul-28 04:33N 17°52' W 063°06'16 1.1
2015-Jul-27 14:33N 17°37' W 063°11'8 8.2
2015-Jul-27 13:33N 17°43' W 063°17'9 8.3
2015-Jul-27 12:29N 17°49' W 063°24'8 8.4
2015-Jul-27 11:33N 17°51' W 063°32'77 8.5
2015-Jul-27 02:33N 18°15' W 064°48'4 0.3
2015-Jul-26 13:33N 18°17' W 064°52'76 9.5
2015-Jul-26 05:32N 18°09' W 063°32'9 9.5
2015-Jul-26 04:33N 18°07' W 063°23'9 9.4
2015-Jul-26 03:33N 18°06' W 063°13'7 7.4
2015-Jul-26 02:33N 18°05' W 063°05'0 0.0
2015-Jul-26 01:32N 18°05' W 063°05'0 0.0
2015-Jul-26 00:34N 18°05' W 063°05'0 0.0
2015-Jul-25 23:32N 18°05' W 063°05'0 0.0
2015-Jul-25 22:34N 18°05' W 063°05'0 0.0
2015-Jul-25 21:32N 18°05' W 063°05'3 2.6
2015-Jul-25 20:32N 18°05' W 063°08'9 8.7
2015-Jul-25 19:31N 18°06' W 063°17'8 8.4
2015-Jul-25 18:31N 18°07' W 063°26'81 8.2
2015-Jul-25 08:34N 18°13' W 064°51'14 0.5
2015-Jul-24 02:33N 18°26' W 064°54'1010.0
2015-Jul-24 01:34N 18°23' W 064°44'  
Track history (hours):
 
Tides and Currents Weather Stations Pressure Air Temp Water Temp Dewpoint Dewpoint Depression Visibility Wind Speed Wind Dir Waves Ship Positions

Midnight Wolf

Last reported at 2015-Aug-02 09:17 UTC. Time now 2015-Aug-02 22:26 UTC.
Position N 18°17' W 064°53'.

Length 51 m; draft 4 m.

Type: Cargo ship. MMSI: 351880000.

Date/timePositionNaut miles runAvg speedWind from/ knotsBaromVisibWave heightAir tempDewpointWater temp
2015-Aug-02 09:17N 18°17' W 064°53'8 9.5
2015-Aug-02 08:24N 18°16' W 064°45'69 9.8
2015-Aug-02 01:22N 18°09' W 063°33'8 9.6
2015-Aug-02 00:33N 18°08' W 063°25'10 9.9
2015-Aug-01 23:33N 18°07' W 063°14'9 8.9
2015-Aug-01 22:33N 18°05' W 063°05'0 0.0
2015-Aug-01 21:32N 18°05' W 063°05'0 0.0
2015-Aug-01 20:32N 18°05' W 063°05'0 0.0
2015-Aug-01 19:33N 18°05' W 063°05'3 2.8
2015-Aug-01 18:32N 18°05' W 063°08'8 8.7
2015-Aug-01 17:33N 18°06' W 063°17'9 8.7
2015-Aug-01 16:33N 18°06' W 063°26'77 8.3
2015-Aug-01 07:17N 18°13' W 064°47'6 8.2
2015-Aug-01 06:34N 18°13' W 064°53'14 0.5
2015-Jul-31 03:04N 18°27' W 064°56'5 9.7
2015-Jul-31 02:33N 18°25' W 064°51'10 9.5
2015-Jul-31 01:33N 18°22' W 064°41'5 0.3
2015-Jul-30 06:30N 18°25' W 064°36'62 9.9
2015-Jul-30 00:13N 18°10' W 063°33'710.0
2015-Jul-29 23:33N 18°08' W 063°26'10 9.8
2015-Jul-29 22:33N 18°07' W 063°16'10 9.7
2015-Jul-29 21:33N 18°05' W 063°06'1 0.6
2015-Jul-29 20:31N 18°05' W 063°05'0 0.0
2015-Jul-29 19:32N 18°05' W 063°05'0 0.0
2015-Jul-29 18:33N 18°05' W 063°05'0 0.0
2015-Jul-29 17:33N 18°05' W 063°05'0 0.0
2015-Jul-29 16:31N 18°05' W 063°05'0 0.0
2015-Jul-29 15:33N 18°05' W 063°05'0 0.0
2015-Jul-29 14:32N 18°05' W 063°05'0 0.0
2015-Jul-29 13:33N 18°05' W 063°05'0 0.0
2015-Jul-29 12:33N 18°05' W 063°05'0 0.0
2015-Jul-29 11:31N 18°05' W 063°05'0 0.5
2015-Jul-29 10:33N 18°05' W 063°06'0 0.0
2015-Jul-29 09:33N 18°05' W 063°06'0 0.0
2015-Jul-29 08:33N 18°05' W 063°06'0 0.0
2015-Jul-29 07:31N 18°05' W 063°06'0 0.0
2015-Jul-29 06:33N 18°05' W 063°05'0 0.0
2015-Jul-29 05:33N 18°05' W 063°05'0 0.0
2015-Jul-29 04:33N 18°05' W 063°06'0 0.0
2015-Jul-29 03:32N 18°05' W 063°05'0 0.0
2015-Jul-29 02:32N 18°05' W 063°06'0 0.0
2015-Jul-29 01:33N 18°05' W 063°05'0 0.0
2015-Jul-29 00:33N 18°05' W 063°06'0 0.0
2015-Jul-28 23:33N 18°05' W 063°06'0 0.0
2015-Jul-28 22:33N 18°05' W 063°06'0 0.0
2015-Jul-28 21:31N 18°05' W 063°06'0 0.0
2015-Jul-28 20:33N 18°05' W 063°06'0 0.0
2015-Jul-28 19:32N 18°05' W 063°06'0 0.0
2015-Jul-28 18:32N 18°05' W 063°06'0 0.0
2015-Jul-28 17:32N 18°05' W 063°05'0 0.0
2015-Jul-28 16:33N 18°05' W 063°06'0 0.0
2015-Jul-28 15:33N 18°05' W 063°05'0 0.0
2015-Jul-28 14:33N 18°05' W 063°05'0 0.0
2015-Jul-28 13:33N 18°05' W 063°06'0 0.0
2015-Jul-28 12:33N 18°05' W 063°06'0 0.0
2015-Jul-28 11:33N 18°05' W 063°06'0 0.0
2015-Jul-28 10:32N 18°05' W 063°05'0 0.0
2015-Jul-28 09:33N 18°05' W 063°06'0 0.0
2015-Jul-28 08:32N 18°05' W 063°06'0 0.0
2015-Jul-28 07:31N 18°05' W 063°05'0 0.0
2015-Jul-28 06:32N 18°05' W 063°06'5 5.2
2015-Jul-28 05:32N 18°01' W 063°10'10 9.6
2015-Jul-28 04:33N 17°52' W 063°06'16 1.1
2015-Jul-27 14:33N 17°37' W 063°11'8 8.2
2015-Jul-27 13:33N 17°43' W 063°17'9 8.3
2015-Jul-27 12:29N 17°49' W 063°24'8 8.4
2015-Jul-27 11:33N 17°51' W 063°32'77 8.5
2015-Jul-27 02:33N 18°15' W 064°48'4 0.3
2015-Jul-26 13:33N 18°17' W 064°52'76 9.5
2015-Jul-26 05:32N 18°09' W 063°32'9 9.5
2015-Jul-26 04:33N 18°07' W 063°23'9 9.4
2015-Jul-26 03:33N 18°06' W 063°13'7 7.4
2015-Jul-26 02:33N 18°05' W 063°05'0 0.0
2015-Jul-26 01:32N 18°05' W 063°05'0 0.0
2015-Jul-26 00:34N 18°05' W 063°05'0 0.0
2015-Jul-25 23:32N 18°05' W 063°05'0 0.0
2015-Jul-25 22:34N 18°05' W 063°05'0 0.0
2015-Jul-25 21:32N 18°05' W 063°05'3 2.6
2015-Jul-25 20:32N 18°05' W 063°08'9 8.7
2015-Jul-25 19:31N 18°06' W 063°17'8 8.4
2015-Jul-25 18:31N 18°07' W 063°26'81 8.2
2015-Jul-25 08:34N 18°13' W 064°51'14 0.5
2015-Jul-24 02:33N 18°26' W 064°54'1010.0
2015-Jul-24 01:34N 18°23' W 064°44'  

Dump ship's entire track history